sensor_id;sensor_type;location;lat;lon;timestamp;temperature;humidity
23475;DHT22;11910;52.086;21.066;2023-07-22T00:00:10;17.30;99.90
23475;DHT22;11910;52.086;21.066;2023-07-22T00:02:40;17.30;99.90
23475;DHT22;11910;52.086;21.066;2023-07-22T00:05:07;17.30;99.90
23475;DHT22;11910;52.086;21.066;2023-07-22T00:07:32;17.20;99.90
23475;DHT22;11910;52.086;21.066;2023-07-22T00:09:59;17.30;99.90
23475;DHT22;11910;52.086;21.066;2023-07-22T00:12:25;17.30;99.90
23475;DHT22;11910;52.086;21.066;2023-07-22T00:14:51;17.30;99.90
23475;DHT22;11910;52.086;21.066;2023-07-22T00:17:18;17.40;99.90
23475;DHT22;11910;52.086;21.066;2023-07-22T00:19:44;17.40;99.90
23475;DHT22;11910;52.086;21.066;2023-07-22T00:22:10;17.50;99.90
23475;DHT22;11910;52.086;21.066;2023-07-22T00:24:35;17.40;99.90
23475;DHT22;11910;52.086;21.066;2023-07-22T00:27:01;17.40;99.90
23475;DHT22;11910;52.086;21.066;2023-07-22T00:29:26;17.40;99.90
23475;DHT22;11910;52.086;21.066;2023-07-22T00:31:52;17.40;99.90
23475;DHT22;11910;52.086;21.066;2023-07-22T00:34:18;17.40;99.90
23475;DHT22;11910;52.086;21.066;2023-07-22T00:36:44;17.40;99.90
23475;DHT22;11910;52.086;21.066;2023-07-22T00:39:11;17.40;99.90
23475;DHT22;11910;52.086;21.066;2023-07-22T00:41:39;17.40;99.90
23475;DHT22;11910;52.086;21.066;2023-07-22T00:44:06;17.40;99.90
23475;DHT22;11910;52.086;21.066;2023-07-22T00:46:31;17.30;99.90
23475;DHT22;11910;52.086;21.066;2023-07-22T00:48:57;17.40;99.90
23475;DHT22;11910;52.086;21.066;2023-07-22T00:51:22;17.40;99.90
23475;DHT22;11910;52.086;21.066;2023-07-22T00:53:48;17.40;99.90
23475;DHT22;11910;52.086;21.066;2023-07-22T00:56:14;17.40;99.90
23475;DHT22;11910;52.086;21.066;2023-07-22T00:58:39;17.40;99.90
23475;DHT22;11910;52.086;21.066;2023-07-22T01:01:05;17.30;99.90
23475;DHT22;11910;52.086;21.066;2023-07-22T01:03:31;17.30;99.90
23475;DHT22;11910;52.086;21.066;2023-07-22T01:05:57;17.40;99.90
23475;DHT22;11910;52.086;21.066;2023-07-22T01:08:26;17.30;99.90
23475;DHT22;11910;52.086;21.066;2023-07-22T01:10:51;17.40;99.90
23475;DHT22;11910;52.086;21.066;2023-07-22T01:13:17;17.40;99.90
23475;DHT22;11910;52.086;21.066;2023-07-22T01:15:43;17.30;99.90
23475;DHT22;11910;52.086;21.066;2023-07-22T01:18:08;17.20;99.90
23475;DHT22;11910;52.086;21.066;2023-07-22T01:20:34;17.30;99.90
23475;DHT22;11910;52.086;21.066;2023-07-22T01:23:00;17.30;99.90
23475;DHT22;11910;52.086;21.066;2023-07-22T01:25:27;17.30;99.90
23475;DHT22;11910;52.086;21.066;2023-07-22T01:27:53;17.30;99.90
23475;DHT22;11910;52.086;21.066;2023-07-22T01:30:19;17.40;99.90
23475;DHT22;11910;52.086;21.066;2023-07-22T01:32:46;17.40;99.90
23475;DHT22;11910;52.086;21.066;2023-07-22T01:35:12;17.40;99.90
23475;DHT22;11910;52.086;21.066;2023-07-22T01:37:37;17.40;99.90
23475;DHT22;11910;52.086;21.066;2023-07-22T01:40:03;17.50;99.90
23475;DHT22;11910;52.086;21.066;2023-07-22T01:42:42;17.40;99.90
23475;DHT22;11910;52.086;21.066;2023-07-22T01:45:08;17.50;99.90
23475;DHT22;11910;52.086;21.066;2023-07-22T01:47:35;17.40;99.90
23475;DHT22;11910;52.086;21.066;2023-07-22T01:50:02;17.40;99.90
23475;DHT22;11910;52.086;21.066;2023-07-22T01:52:27;17.50;99.90
23475;DHT22;11910;52.086;21.066;2023-07-22T01:54:53;17.40;99.90
23475;DHT22;11910;52.086;21.066;2023-07-22T01:57:19;17.40;99.90
23475;DHT22;11910;52.086;21.066;2023-07-22T01:59:44;17.30;99.90
23475;DHT22;11910;52.086;21.066;2023-07-22T02:02:10;17.30;99.90
23475;DHT22;11910;52.086;21.066;2023-07-22T02:04:35;17.30;99.90
23475;DHT22;11910;52.086;21.066;2023-07-22T02:07:01;17.30;99.90
23475;DHT22;11910;52.086;21.066;2023-07-22T02:09:26;17.30;99.90
23475;DHT22;11910;52.086;21.066;2023-07-22T02:11:52;17.30;99.90
23475;DHT22;11910;52.086;21.066;2023-07-22T02:14:19;17.30;99.90
23475;DHT22;11910;52.086;21.066;2023-07-22T02:16:44;17.30;99.90
23475;DHT22;11910;52.086;21.066;2023-07-22T02:19:10;17.20;99.90
23475;DHT22;11910;52.086;21.066;2023-07-22T02:21:35;17.30;99.90
23475;DHT22;11910;52.086;21.066;2023-07-22T02:24:01;17.20;99.90
23475;DHT22;11910;52.086;21.066;2023-07-22T02:26:27;17.30;99.90
23475;DHT22;11910;52.086;21.066;2023-07-22T02:28:52;17.20;99.90
23475;DHT22;11910;52.086;21.066;2023-07-22T02:31:18;17.20;99.90
23475;DHT22;11910;52.086;21.066;2023-07-22T02:33:43;17.20;99.90
23475;DHT22;11910;52.086;21.066;2023-07-22T02:36:09;17.30;99.90
23475;DHT22;11910;52.086;21.066;2023-07-22T02:38:35;17.30;99.90
23475;DHT22;11910;52.086;21.066;2023-07-22T02:41:06;17.30;99.90
23475;DHT22;11910;52.086;21.066;2023-07-22T02:43:34;17.30;99.90
23475;DHT22;11910;52.086;21.066;2023-07-22T02:46:01;17.20;99.90
23475;DHT22;11910;52.086;21.066;2023-07-22T02:48:28;17.20;99.90
23475;DHT22;11910;52.086;21.066;2023-07-22T02:50:53;17.30;99.90
23475;DHT22;11910;52.086;21.066;2023-07-22T02:53:19;17.30;99.90
23475;DHT22;11910;52.086;21.066;2023-07-22T02:55:44;17.30;99.90
23475;DHT22;11910;52.086;21.066;2023-07-22T02:58:12;17.30;99.90
23475;DHT22;11910;52.086;21.066;2023-07-22T03:00:38;17.30;99.90
23475;DHT22;11910;52.086;21.066;2023-07-22T03:03:03;17.40;99.90
23475;DHT22;11910;52.086;21.066;2023-07-22T03:05:31;17.40;99.90
23475;DHT22;11910;52.086;21.066;2023-07-22T03:07:58;17.40;99.90
23475;DHT22;11910;52.086;21.066;2023-07-22T03:10:25;17.40;99.90
23475;DHT22;11910;52.086;21.066;2023-07-22T03:12:51;17.30;99.90
23475;DHT22;11910;52.086;21.066;2023-07-22T03:15:23;17.30;99.90
23475;DHT22;11910;52.086;21.066;2023-07-22T03:17:51;17.30;99.90
23475;DHT22;11910;52.086;21.066;2023-07-22T03:20:17;17.30;99.90
23475;DHT22;11910;52.086;21.066;2023-07-22T03:22:44;17.20;99.90
23475;DHT22;11910;52.086;21.066;2023-07-22T03:25:11;17.30;99.90
23475;DHT22;11910;52.086;21.066;2023-07-22T03:27:38;17.30;99.90
23475;DHT22;11910;52.086;21.066;2023-07-22T03:30:05;17.30;99.90
23475;DHT22;11910;52.086;21.066;2023-07-22T03:32:43;17.30;99.90
23475;DHT22;11910;52.086;21.066;2023-07-22T03:35:09;17.30;99.90
23475;DHT22;11910;52.086;21.066;2023-07-22T03:37:36;17.30;99.90
23475;DHT22;11910;52.086;21.066;2023-07-22T03:40:03;17.30;99.90
23475;DHT22;11910;52.086;21.066;2023-07-22T03:42:33;17.20;99.90
23475;DHT22;11910;52.086;21.066;2023-07-22T03:44:59;17.30;99.90
23475;DHT22;11910;52.086;21.066;2023-07-22T03:47:24;17.30;99.90
23475;DHT22;11910;52.086;21.066;2023-07-22T03:49:50;17.20;99.90
23475;DHT22;11910;52.086;21.066;2023-07-22T03:52:16;17.30;99.90
23475;DHT22;11910;52.086;21.066;2023-07-22T03:54:44;17.40;99.90
23475;DHT22;11910;52.086;21.066;2023-07-22T03:57:09;17.50;99.90
23475;DHT22;11910;52.086;21.066;2023-07-22T03:59:35;17.50;99.90
23475;DHT22;11910;52.086;21.066;2023-07-22T04:02:01;17.60;99.90
23475;DHT22;11910;52.086;21.066;2023-07-22T04:04:26;17.70;99.90
23475;DHT22;11910;52.086;21.066;2023-07-22T04:06:52;17.70;99.90
23475;DHT22;11910;52.086;21.066;2023-07-22T04:09:18;17.70;99.90
23475;DHT22;11910;52.086;21.066;2023-07-22T04:11:43;17.70;99.90
23475;DHT22;11910;52.086;21.066;2023-07-22T04:14:09;17.80;99.90
23475;DHT22;11910;52.086;21.066;2023-07-22T04:16:34;17.90;99.90
23475;DHT22;11910;52.086;21.066;2023-07-22T04:19:00;18.00;99.90
23475;DHT22;11910;52.086;21.066;2023-07-22T04:21:26;18.00;99.90
23475;DHT22;11910;52.086;21.066;2023-07-22T04:23:52;18.00;99.90
23475;DHT22;11910;52.086;21.066;2023-07-22T04:26:18;18.00;99.90
23475;DHT22;11910;52.086;21.066;2023-07-22T04:28:44;18.10;99.90
23475;DHT22;11910;52.086;21.066;2023-07-22T04:31:10;18.00;99.90
23475;DHT22;11910;52.086;21.066;2023-07-22T04:33:36;18.00;99.90
23475;DHT22;11910;52.086;21.066;2023-07-22T04:36:02;18.10;99.90
23475;DHT22;11910;52.086;21.066;2023-07-22T04:38:27;18.10;99.90
23475;DHT22;11910;52.086;21.066;2023-07-22T04:40:53;18.10;99.90
23475;DHT22;11910;52.086;21.066;2023-07-22T04:43:19;18.10;99.90
23475;DHT22;11910;52.086;21.066;2023-07-22T04:45:45;18.20;99.90
23475;DHT22;11910;52.086;21.066;2023-07-22T04:48:15;18.30;99.90
23475;DHT22;11910;52.086;21.066;2023-07-22T04:50:41;18.30;99.90
23475;DHT22;11910;52.086;21.066;2023-07-22T04:53:10;18.40;99.90
23475;DHT22;11910;52.086;21.066;2023-07-22T04:55:36;18.40;99.90
23475;DHT22;11910;52.086;21.066;2023-07-22T04:58:02;18.50;99.90
23475;DHT22;11910;52.086;21.066;2023-07-22T05:00:28;18.50;99.90
23475;DHT22;11910;52.086;21.066;2023-07-22T05:02:54;18.60;99.90
23475;DHT22;11910;52.086;21.066;2023-07-22T05:05:21;18.60;99.90
23475;DHT22;11910;52.086;21.066;2023-07-22T05:07:47;18.60;99.90
23475;DHT22;11910;52.086;21.066;2023-07-22T05:10:15;18.60;99.90
23475;DHT22;11910;52.086;21.066;2023-07-22T05:12:41;18.70;99.90
23475;DHT22;11910;52.086;21.066;2023-07-22T05:15:07;18.70;99.90
23475;DHT22;11910;52.086;21.066;2023-07-22T05:17:33;18.70;99.90
23475;DHT22;11910;52.086;21.066;2023-07-22T05:19:59;18.80;99.90
23475;DHT22;11910;52.086;21.066;2023-07-22T05:22:25;18.80;99.90
23475;DHT22;11910;52.086;21.066;2023-07-22T05:24:50;18.80;99.90
23475;DHT22;11910;52.086;21.066;2023-07-22T05:27:17;18.90;99.90
23475;DHT22;11910;52.086;21.066;2023-07-22T05:29:43;18.90;99.90
23475;DHT22;11910;52.086;21.066;2023-07-22T05:32:08;18.90;99.90
23475;DHT22;11910;52.086;21.066;2023-07-22T05:34:34;18.90;99.90
23475;DHT22;11910;52.086;21.066;2023-07-22T05:36:59;19.00;99.90
23475;DHT22;11910;52.086;21.066;2023-07-22T05:39:25;19.10;99.90
23475;DHT22;11910;52.086;21.066;2023-07-22T05:41:51;19.10;99.90
23475;DHT22;11910;52.086;21.066;2023-07-22T05:44:17;19.20;99.90
23475;DHT22;11910;52.086;21.066;2023-07-22T05:46:43;19.20;99.90
23475;DHT22;11910;52.086;21.066;2023-07-22T05:49:09;19.20;99.90
23475;DHT22;11910;52.086;21.066;2023-07-22T05:51:34;19.20;99.90
23475;DHT22;11910;52.086;21.066;2023-07-22T05:54:00;19.20;99.90
23475;DHT22;11910;52.086;21.066;2023-07-22T05:56:25;19.30;99.90
23475;DHT22;11910;52.086;21.066;2023-07-22T05:58:51;19.40;99.90
23475;DHT22;11910;52.086;21.066;2023-07-22T06:01:17;19.60;99.90
23475;DHT22;11910;52.086;21.066;2023-07-22T06:03:42;19.70;99.90
23475;DHT22;11910;52.086;21.066;2023-07-22T06:06:09;19.90;99.90
23475;DHT22;11910;52.086;21.066;2023-07-22T06:08:35;19.90;99.90
23475;DHT22;11910;52.086;21.066;2023-07-22T06:11:01;20.00;99.90
23475;DHT22;11910;52.086;21.066;2023-07-22T06:13:26;20.00;99.90
23475;DHT22;11910;52.086;21.066;2023-07-22T06:15:52;20.10;99.90
23475;DHT22;11910;52.086;21.066;2023-07-22T06:18:18;20.10;99.90
23475;DHT22;11910;52.086;21.066;2023-07-22T06:20:44;20.20;99.90
23475;DHT22;11910;52.086;21.066;2023-07-22T06:23:10;20.20;99.90
23475;DHT22;11910;52.086;21.066;2023-07-22T06:25:36;20.20;99.70
23475;DHT22;11910;52.086;21.066;2023-07-22T06:28:01;20.10;99.90
23475;DHT22;11910;52.086;21.066;2023-07-22T06:30:27;20.20;99.20
23475;DHT22;11910;52.086;21.066;2023-07-22T06:32:53;20.20;99.40
23475;DHT22;11910;52.086;21.066;2023-07-22T06:35:19;20.20;99.80
23475;DHT22;11910;52.086;21.066;2023-07-22T06:37:44;20.10;99.00
23475;DHT22;11910;52.086;21.066;2023-07-22T06:40:10;20.00;97.50
23475;DHT22;11910;52.086;21.066;2023-07-22T06:42:36;19.90;97.90
23475;DHT22;11910;52.086;21.066;2023-07-22T06:45:02;20.00;97.30
23475;DHT22;11910;52.086;21.066;2023-07-22T06:47:28;20.00;98.20
23475;DHT22;11910;52.086;21.066;2023-07-22T06:49:53;20.00;97.80
23475;DHT22;11910;52.086;21.066;2023-07-22T06:52:19;20.10;98.20
23475;DHT22;11910;52.086;21.066;2023-07-22T06:54:44;20.10;97.90
23475;DHT22;11910;52.086;21.066;2023-07-22T06:57:10;20.10;98.90
23475;DHT22;11910;52.086;21.066;2023-07-22T06:59:36;20.10;97.90
23475;DHT22;11910;52.086;21.066;2023-07-22T07:02:02;20.20;96.80
23475;DHT22;11910;52.086;21.066;2023-07-22T07:04:28;20.20;96.50
23475;DHT22;11910;52.086;21.066;2023-07-22T07:06:54;20.30;96.90
23475;DHT22;11910;52.086;21.066;2023-07-22T07:09:19;20.40;97.20
23475;DHT22;11910;52.086;21.066;2023-07-22T07:11:45;20.40;96.90
23475;DHT22;11910;52.086;21.066;2023-07-22T07:14:10;20.40;96.20
23475;DHT22;11910;52.086;21.066;2023-07-22T07:16:36;20.50;96.20
23475;DHT22;11910;52.086;21.066;2023-07-22T07:19:02;20.50;95.80
23475;DHT22;11910;52.086;21.066;2023-07-22T07:21:28;20.60;95.60
23475;DHT22;11910;52.086;21.066;2023-07-22T07:23:54;20.60;94.90
23475;DHT22;11910;52.086;21.066;2023-07-22T07:26:20;20.60;94.80
23475;DHT22;11910;52.086;21.066;2023-07-22T07:28:47;20.70;94.50
23475;DHT22;11910;52.086;21.066;2023-07-22T07:31:12;20.70;94.50
23475;DHT22;11910;52.086;21.066;2023-07-22T07:33:38;20.80;94.20
23475;DHT22;11910;52.086;21.066;2023-07-22T07:36:04;20.90;94.30
23475;DHT22;11910;52.086;21.066;2023-07-22T07:38:30;21.00;93.90
23475;DHT22;11910;52.086;21.066;2023-07-22T07:40:58;21.10;93.20
23475;DHT22;11910;52.086;21.066;2023-07-22T07:43:24;21.20;93.50
23475;DHT22;11910;52.086;21.066;2023-07-22T07:45:49;21.30;92.30
23475;DHT22;11910;52.086;21.066;2023-07-22T07:48:16;21.20;92.00
23475;DHT22;11910;52.086;21.066;2023-07-22T07:50:42;21.20;92.10
23475;DHT22;11910;52.086;21.066;2023-07-22T07:53:07;21.20;91.90
23475;DHT22;11910;52.086;21.066;2023-07-22T07:55:33;21.20;92.30
23475;DHT22;11910;52.086;21.066;2023-07-22T07:57:59;21.30;91.80
23475;DHT22;11910;52.086;21.066;2023-07-22T08:00:24;21.30;92.10
23475;DHT22;11910;52.086;21.066;2023-07-22T08:02:50;21.40;92.50
23475;DHT22;11910;52.086;21.066;2023-07-22T08:05:16;21.40;90.20
23475;DHT22;11910;52.086;21.066;2023-07-22T08:07:41;21.60;90.50
23475;DHT22;11910;52.086;21.066;2023-07-22T08:10:07;21.60;90.10
23475;DHT22;11910;52.086;21.066;2023-07-22T08:12:33;21.50;89.70
23475;DHT22;11910;52.086;21.066;2023-07-22T08:14:59;21.60;89.30
23475;DHT22;11910;52.086;21.066;2023-07-22T08:17:25;21.80;90.30
23475;DHT22;11910;52.086;21.066;2023-07-22T08:19:52;22.00;90.60
23475;DHT22;11910;52.086;21.066;2023-07-22T08:22:17;22.10;89.50
23475;DHT22;11910;52.086;21.066;2023-07-22T08:24:43;22.20;87.30
23475;DHT22;11910;52.086;21.066;2023-07-22T08:27:09;22.30;85.50
23475;DHT22;11910;52.086;21.066;2023-07-22T08:29:36;22.70;84.20
23475;DHT22;11910;52.086;21.066;2023-07-22T08:32:01;22.70;84.60
23475;DHT22;11910;52.086;21.066;2023-07-22T08:34:27;23.40;82.10
23475;DHT22;11910;52.086;21.066;2023-07-22T08:36:53;23.70;80.00
23475;DHT22;11910;52.086;21.066;2023-07-22T08:39:18;23.90;78.00
23475;DHT22;11910;52.086;21.066;2023-07-22T08:41:49;24.10;77.80
23475;DHT22;11910;52.086;21.066;2023-07-22T08:44:21;24.20;75.80
23475;DHT22;11910;52.086;21.066;2023-07-22T08:46:47;24.40;77.30
23475;DHT22;11910;52.086;21.066;2023-07-22T08:49:15;24.70;75.70
23475;DHT22;11910;52.086;21.066;2023-07-22T08:51:41;25.00;75.70
23475;DHT22;11910;52.086;21.066;2023-07-22T08:54:07;25.30;74.40
23475;DHT22;11910;52.086;21.066;2023-07-22T08:56:34;26.30;73.10
23475;DHT22;11910;52.086;21.066;2023-07-22T08:59:01;26.90;68.00
23475;DHT22;11910;52.086;21.066;2023-07-22T09:01:27;27.60;67.00
23475;DHT22;11910;52.086;21.066;2023-07-22T09:03:52;27.80;64.30
23475;DHT22;11910;52.086;21.066;2023-07-22T09:06:19;28.80;63.80
23475;DHT22;11910;52.086;21.066;2023-07-22T09:08:45;29.10;63.30
23475;DHT22;11910;52.086;21.066;2023-07-22T09:11:11;29.50;58.80
23475;DHT22;11910;52.086;21.066;2023-07-22T09:13:38;31.80;56.20
23475;DHT22;11910;52.086;21.066;2023-07-22T09:16:06;33.00;54.10
23475;DHT22;11910;52.086;21.066;2023-07-22T09:18:34;34.00;50.70
23475;DHT22;11910;52.086;21.066;2023-07-22T09:21:00;35.50;48.90
23475;DHT22;11910;52.086;21.066;2023-07-22T09:23:36;33.20;51.00
23475;DHT22;11910;52.086;21.066;2023-07-22T09:26:13;35.20;48.80
23475;DHT22;11910;52.086;21.066;2023-07-22T09:28:56;37.00;46.00
23475;DHT22;11910;52.086;21.066;2023-07-22T09:31:23;37.60;45.10
23475;DHT22;11910;52.086;21.066;2023-07-22T09:33:49;33.90;47.20
23475;DHT22;11910;52.086;21.066;2023-07-22T09:36:16;35.40;47.00
23475;DHT22;11910;52.086;21.066;2023-07-22T09:38:42;36.70;45.90
23475;DHT22;11910;52.086;21.066;2023-07-22T09:41:08;35.50;45.40
23475;DHT22;11910;52.086;21.066;2023-07-22T09:43:38;35.50;45.70
23475;DHT22;11910;52.086;21.066;2023-07-22T09:46:10;37.00;43.60
23475;DHT22;11910;52.086;21.066;2023-07-22T09:48:43;36.80;44.20
23475;DHT22;11910;52.086;21.066;2023-07-22T09:51:14;34.20;46.40
23475;DHT22;11910;52.086;21.066;2023-07-22T09:53:51;36.40;44.10
23475;DHT22;11910;52.086;21.066;2023-07-22T09:56:24;35.20;43.30
23475;DHT22;11910;52.086;21.066;2023-07-22T09:58:51;34.50;44.70
23475;DHT22;11910;52.086;21.066;2023-07-22T10:01:19;36.70;43.30
23475;DHT22;11910;52.086;21.066;2023-07-22T10:03:45;37.30;42.80
23475;DHT22;11910;52.086;21.066;2023-07-22T10:06:13;34.30;44.20
23475;DHT22;11910;52.086;21.066;2023-07-22T10:08:41;32.80;46.40
23475;DHT22;11910;52.086;21.066;2023-07-22T10:11:11;34.90;45.20
23475;DHT22;11910;52.086;21.066;2023-07-22T10:13:38;33.90;45.10
23475;DHT22;11910;52.086;21.066;2023-07-22T10:16:04;32.60;45.00
23475;DHT22;11910;52.086;21.066;2023-07-22T10:18:32;30.90;47.80
23475;DHT22;11910;52.086;21.066;2023-07-22T10:20:57;33.40;45.90
23475;DHT22;11910;52.086;21.066;2023-07-22T10:23:25;34.80;43.90
23475;DHT22;11910;52.086;21.066;2023-07-22T10:25:53;32.90;46.30
23475;DHT22;11910;52.086;21.066;2023-07-22T10:28:21;32.20;46.50
23475;DHT22;11910;52.086;21.066;2023-07-22T10:30:47;30.50;48.80
23475;DHT22;11910;52.086;21.066;2023-07-22T10:33:13;31.70;47.10
23475;DHT22;11910;52.086;21.066;2023-07-22T10:35:43;32.40;47.40
23475;DHT22;11910;52.086;21.066;2023-07-22T10:38:16;34.40;45.20
23475;DHT22;11910;52.086;21.066;2023-07-22T10:40:46;35.60;42.80
23475;DHT22;11910;52.086;21.066;2023-07-22T10:43:11;36.50;42.20
23475;DHT22;11910;52.086;21.066;2023-07-22T10:45:51;37.20;41.20
23475;DHT22;11910;52.086;21.066;2023-07-22T10:48:17;38.10;39.50
23475;DHT22;11910;52.086;21.066;2023-07-22T10:53:10;38.60;39.20
23475;DHT22;11910;52.086;21.066;2023-07-22T11:12:12;39.50;36.00
23475;DHT22;11910;52.086;21.066;2023-07-22T11:14:45;39.20;36.70
23475;DHT22;11910;52.086;21.066;2023-07-22T11:17:11;39.20;37.40
23475;DHT22;11910;52.086;21.066;2023-07-22T11:19:37;39.40;36.20
23475;DHT22;11910;52.086;21.066;2023-07-22T11:22:04;39.80;35.50
23475;DHT22;11910;52.086;21.066;2023-07-22T11:24:33;39.60;34.90
23475;DHT22;11910;52.086;21.066;2023-07-22T11:26:59;40.10;34.40
23475;DHT22;11910;52.086;21.066;2023-07-22T11:29:25;40.10;33.90
23475;DHT22;11910;52.086;21.066;2023-07-22T11:31:51;39.90;34.00
23475;DHT22;11910;52.086;21.066;2023-07-22T11:34:22;38.80;34.60
23475;DHT22;11910;52.086;21.066;2023-07-22T11:36:48;38.90;35.50
23475;DHT22;11910;52.086;21.066;2023-07-22T11:39:16;35.70;37.00
23475;DHT22;11910;52.086;21.066;2023-07-22T11:41:43;33.70;39.70
23475;DHT22;11910;52.086;21.066;2023-07-22T11:44:10;32.20;42.70
23475;DHT22;11910;52.086;21.066;2023-07-22T11:46:54;30.80;43.30
23475;DHT22;11910;52.086;21.066;2023-07-22T11:51:50;28.50;47.50
23475;DHT22;11910;52.086;21.066;2023-07-22T11:54:16;28.20;48.30
23475;DHT22;11910;52.086;21.066;2023-07-22T11:56:42;28.00;50.20
23475;DHT22;11910;52.086;21.066;2023-07-22T11:59:08;27.80;49.60
23475;DHT22;11910;52.086;21.066;2023-07-22T12:01:34;27.50;50.80
23475;DHT22;11910;52.086;21.066;2023-07-22T12:03:59;27.60;51.50
23475;DHT22;11910;52.086;21.066;2023-07-22T12:06:26;27.60;51.70
23475;DHT22;11910;52.086;21.066;2023-07-22T12:08:52;27.20;51.30
23475;DHT22;11910;52.086;21.066;2023-07-22T12:11:22;27.00;50.70
23475;DHT22;11910;52.086;21.066;2023-07-22T12:14:10;26.60;51.10
23475;DHT22;11910;52.086;21.066;2023-07-22T12:16:37;26.40;52.30
23475;DHT22;11910;52.086;21.066;2023-07-22T12:19:03;26.40;52.80
23475;DHT22;11910;52.086;21.066;2023-07-22T12:21:29;26.50;53.00
23475;DHT22;11910;52.086;21.066;2023-07-22T12:23:54;26.60;52.50
23475;DHT22;11910;52.086;21.066;2023-07-22T12:26:20;26.60;52.60
23475;DHT22;11910;52.086;21.066;2023-07-22T12:28:46;26.80;52.10
23475;DHT22;11910;52.086;21.066;2023-07-22T12:31:12;26.60;52.30
23475;DHT22;11910;52.086;21.066;2023-07-22T12:33:38;26.60;53.60
23475;DHT22;11910;52.086;21.066;2023-07-22T12:36:03;26.30;52.30
23475;DHT22;11910;52.086;21.066;2023-07-22T12:38:30;26.10;52.00
23475;DHT22;11910;52.086;21.066;2023-07-22T12:40:56;26.10;53.00
23475;DHT22;11910;52.086;21.066;2023-07-22T12:43:21;26.20;53.40
23475;DHT22;11910;52.086;21.066;2023-07-22T12:45:47;26.00;52.20
23475;DHT22;11910;52.086;21.066;2023-07-22T12:48:13;25.90;51.40
23475;DHT22;11910;52.086;21.066;2023-07-22T12:50:38;25.90;52.40
23475;DHT22;11910;52.086;21.066;2023-07-22T12:53:04;25.90;50.50
23475;DHT22;11910;52.086;21.066;2023-07-22T12:55:30;26.00;50.30
23475;DHT22;11910;52.086;21.066;2023-07-22T12:57:55;26.20;49.70
23475;DHT22;11910;52.086;21.066;2023-07-22T13:00:21;26.20;51.80
23475;DHT22;11910;52.086;21.066;2023-07-22T13:02:47;26.40;51.60
23475;DHT22;11910;52.086;21.066;2023-07-22T13:05:13;26.50;51.20
23475;DHT22;11910;52.086;21.066;2023-07-22T13:07:39;26.50;51.10
23475;DHT22;11910;52.086;21.066;2023-07-22T13:10:05;26.70;52.10
23475;DHT22;11910;52.086;21.066;2023-07-22T13:12:34;26.80;50.60
23475;DHT22;11910;52.086;21.066;2023-07-22T13:15:00;26.80;48.70
23475;DHT22;11910;52.086;21.066;2023-07-22T13:17:25;26.80;48.50
23475;DHT22;11910;52.086;21.066;2023-07-22T13:19:51;26.50;49.10
23475;DHT22;11910;52.086;21.066;2023-07-22T13:24:43;26.30;49.70
23475;DHT22;11910;52.086;21.066;2023-07-22T13:27:08;26.30;49.80
23475;DHT22;11910;52.086;21.066;2023-07-22T13:29:34;26.20;50.60
23475;DHT22;11910;52.086;21.066;2023-07-22T13:32:00;26.20;51.40
23475;DHT22;11910;52.086;21.066;2023-07-22T13:34:25;26.20;50.60
23475;DHT22;11910;52.086;21.066;2023-07-22T13:36:51;26.40;50.80
23475;DHT22;11910;52.086;21.066;2023-07-22T13:39:17;26.40;51.90
23475;DHT22;11910;52.086;21.066;2023-07-22T13:41:42;26.50;51.40
23475;DHT22;11910;52.086;21.066;2023-07-22T13:44:08;26.70;51.20
23475;DHT22;11910;52.086;21.066;2023-07-22T13:46:34;26.80;50.90
23475;DHT22;11910;52.086;21.066;2023-07-22T13:48:59;26.90;49.80
23475;DHT22;11910;52.086;21.066;2023-07-22T13:51:25;26.80;50.00
23475;DHT22;11910;52.086;21.066;2023-07-22T13:53:51;26.70;48.70
23475;DHT22;11910;52.086;21.066;2023-07-22T13:56:20;26.50;48.90
23475;DHT22;11910;52.086;21.066;2023-07-22T13:58:46;26.20;51.00
23475;DHT22;11910;52.086;21.066;2023-07-22T14:01:13;26.10;50.70
23475;DHT22;11910;52.086;21.066;2023-07-22T14:03:39;25.80;51.80
23475;DHT22;11910;52.086;21.066;2023-07-22T14:06:04;25.70;52.10
23475;DHT22;11910;52.086;21.066;2023-07-22T14:08:30;25.50;52.60
23475;DHT22;11910;52.086;21.066;2023-07-22T14:10:56;25.70;52.60
23475;DHT22;11910;52.086;21.066;2023-07-22T14:13:21;25.70;52.40
23475;DHT22;11910;52.086;21.066;2023-07-22T14:15:47;25.70;51.50
23475;DHT22;11910;52.086;21.066;2023-07-22T14:18:12;25.70;51.80
23475;DHT22;11910;52.086;21.066;2023-07-22T14:20:43;25.60;52.10
23475;DHT22;11910;52.086;21.066;2023-07-22T14:23:08;25.70;52.60
23475;DHT22;11910;52.086;21.066;2023-07-22T14:25:34;25.70;53.00
23475;DHT22;11910;52.086;21.066;2023-07-22T14:27:59;25.70;53.40
23475;DHT22;11910;52.086;21.066;2023-07-22T14:30:25;25.70;52.00
23475;DHT22;11910;52.086;21.066;2023-07-22T14:32:54;25.70;50.30
23475;DHT22;11910;52.086;21.066;2023-07-22T14:35:21;25.50;49.30
23475;DHT22;11910;52.086;21.066;2023-07-22T14:37:46;25.50;50.90
23475;DHT22;11910;52.086;21.066;2023-07-22T14:40:13;25.50;51.30
23475;DHT22;11910;52.086;21.066;2023-07-22T14:42:39;25.40;51.90
23475;DHT22;11910;52.086;21.066;2023-07-22T14:45:05;25.50;51.70
23475;DHT22;11910;52.086;21.066;2023-07-22T14:47:31;25.50;52.20
23475;DHT22;11910;52.086;21.066;2023-07-22T14:49:56;25.30;52.20
23475;DHT22;11910;52.086;21.066;2023-07-22T14:52:22;25.40;52.00
23475;DHT22;11910;52.086;21.066;2023-07-22T14:54:49;25.40;50.10
23475;DHT22;11910;52.086;21.066;2023-07-22T14:57:16;25.40;48.70
23475;DHT22;11910;52.086;21.066;2023-07-22T14:59:42;25.30;49.80
23475;DHT22;11910;52.086;21.066;2023-07-22T15:02:08;25.30;50.80
23475;DHT22;11910;52.086;21.066;2023-07-22T15:04:33;25.30;51.70
23475;DHT22;11910;52.086;21.066;2023-07-22T15:06:59;25.20;52.40
23475;DHT22;11910;52.086;21.066;2023-07-22T15:09:25;25.20;52.70
23475;DHT22;11910;52.086;21.066;2023-07-22T15:11:51;25.10;52.70
23475;DHT22;11910;52.086;21.066;2023-07-22T15:14:17;25.10;52.50
23475;DHT22;11910;52.086;21.066;2023-07-22T15:16:42;24.80;53.20
23475;DHT22;11910;52.086;21.066;2023-07-22T15:19:09;24.80;54.10
23475;DHT22;11910;52.086;21.066;2023-07-22T15:21:34;24.80;53.40
23475;DHT22;11910;52.086;21.066;2023-07-22T15:24:00;24.90;54.10
23475;DHT22;11910;52.086;21.066;2023-07-22T15:26:26;24.90;54.10
23475;DHT22;11910;52.086;21.066;2023-07-22T15:28:53;24.80;53.10
23475;DHT22;11910;52.086;21.066;2023-07-22T15:31:19;24.70;53.50
23475;DHT22;11910;52.086;21.066;2023-07-22T15:33:45;24.70;53.20